Time;durP1;ratioP1;P1;durP2;ratioP2;P2;SDS_P1;SDS_P2;PMS_P1;PMS_P2;Temp;Humidity;BMP_temperature;BMP_pressure;BME280_temperature;BME280_humidity;BME280_pressure;Samples;Min_cycle;Max_cycle;Signal;HPM_P1;HPM_P2
2022/06/15 00:00:57;;;;;;;0.20;0.20;;;;;;;24.47;nan;95409.41;4951180;28;20569;-63
2022/06/15 00:03:26;;;;;;;0.60;0.60;;;;;;;23.87;nan;95401.09;4950911;28;20718;-62
2022/06/15 00:06:03;;;;;;;0.27;0.20;;;;;;;23.45;nan;95400.28;4955065;28;20442;-62
2022/06/15 00:08:30;;;;;;;0.93;0.70;;;;;;;23.96;nan;95396.44;4958508;28;20473;-61
2022/06/15 00:11:06;;;;;;;0.20;0.20;;;;;;;24.59;nan;95393.41;4951824;28;20487;-64
2022/06/15 00:13:33;;;;;;;0.47;0.47;;;;;;;24.78;nan;95387.56;4962853;28;20812;-60
2022/06/15 00:16:01;;;;;;;0.40;0.40;;;;;;;24.09;nan;95382.03;4952899;28;20466;-62
2022/06/15 00:18:28;;;;;;;1.23;0.50;;;;;;;24.32;nan;95387.84;4960878;28;20443;-61
2022/06/15 00:20:58;;;;;;;0.20;0.20;;;;;;;24.23;nan;95393.28;4954513;28;20962;-63
2022/06/15 00:23:27;;;;;;;0.20;0.20;;;;;;;24.47;nan;95393.34;4951413;28;20446;-62
2022/06/15 00:25:54;;;;;;;0.30;0.30;;;;;;;23.36;nan;95390.72;4950918;28;20443;-63
2022/06/15 00:28:22;;;;;;;0.37;0.37;;;;;;;23.39;nan;95390.09;4951498;28;20200;-60
2022/06/15 00:30:50;;;;;;;0.10;0.10;;;;;;;23.85;nan;95381.91;4950963;28;20545;-64
2022/06/15 00:33:24;;;;;;;0.20;0.20;;;;;;;23.16;nan;95402.16;4950941;28;20260;-61
2022/06/15 00:35:59;;;;;;;0.10;0.10;;;;;;;23.44;nan;95392.59;4962567;28;20578;-62
2022/06/15 00:38:29;;;;;;;0.20;0.20;;;;;;;23.65;nan;95398.75;4963889;28;20530;-62
2022/06/15 00:40:57;;;;;;;0.70;0.50;;;;;;;24.11;nan;95393.22;4953324;28;20812;-62
2022/06/15 00:43:50;;;;;;;0.30;0.30;;;;;;;23.65;nan;95393.41;4958288;28;21170;-62
2022/06/15 00:46:37;;;;;;;0.30;0.30;;;;;;;23.98;nan;95394.22;4952655;28;20542;-61
2022/06/15 00:49:34;;;;;;;0.37;0.37;;;;;;;24.26;nan;95397.97;4963719;28;20721;-62
2022/06/15 00:52:28;;;;;;;0.17;0.17;;;;;;;23.78;nan;95403.03;4952045;28;20188;-63
2022/06/15 00:54:55;;;;;;;0.20;0.20;;;;;;;24.18;nan;95396.16;4955072;28;21254;-63
2022/06/15 00:57:22;;;;;;;0.20;0.20;;;;;;;24.04;nan;95401.00;4953955;28;20495;-62
2022/06/15 00:59:59;;;;;;;2.37;0.77;;;;;;;23.89;nan;95412.25;4954431;28;20439;-61
2022/06/15 01:02:27;;;;;;;0.10;0.10;;;;;;;23.82;nan;95399.41;4953634;28;20439;-61
2022/06/15 01:05:09;;;;;;;0.60;0.60;;;;;;;23.49;nan;95406.56;4944432;28;20543;-63
2022/06/15 01:07:49;;;;;;;0.20;0.20;;;;;;;24.17;nan;95405.31;4956884;28;20451;-62
2022/06/15 01:10:45;;;;;;;0.40;0.40;;;;;;;23.92;nan;95399.00;4949014;28;20444;-62
2022/06/15 01:13:24;;;;;;;0.70;0.20;;;;;;;23.97;nan;95414.09;4942211;29;20460;-61
2022/06/15 01:16:09;;;;;;;1.10;0.13;;;;;;;23.88;nan;95413.38;4953815;28;21060;-62
2022/06/15 01:18:57;;;;;;;0.27;0.27;;;;;;;23.86;nan;95415.59;4952526;29;20491;-64
2022/06/15 01:21:30;;;;;;;0.10;0.10;;;;;;;24.03;nan;95421.63;4940843;28;20463;-62
2022/06/15 01:24:31;;;;;;;0.20;0.20;;;;;;;23.69;nan;95413.03;4965284;28;20479;-64
2022/06/15 01:27:43;;;;;;;0.20;0.20;;;;;;;24.24;nan;95416.25;4956085;28;20444;-62
2022/06/15 01:30:18;;;;;;;0.30;0.30;;;;;;;23.80;nan;95416.88;4956791;28;20538;-64
2022/06/15 01:33:12;;;;;;;0.20;0.20;;;;;;;23.44;nan;95424.69;4956801;28;20443;-62
2022/06/15 01:36:02;;;;;;;0.57;0.57;;;;;;;23.56;nan;95414.06;4953228;28;20444;-65
2022/06/15 01:38:58;;;;;;;0.10;0.10;;;;;;;23.61;nan;95413.88;4955620;28;21064;-62
2022/06/15 01:41:48;;;;;;;0.73;0.30;;;;;;;23.52;nan;95418.50;4953599;28;20498;-62
2022/06/15 01:44:24;;;;;;;0.10;0.10;;;;;;;24.03;nan;95426.22;4953365;28;20445;-62
2022/06/15 01:46:53;;;;;;;0.40;0.40;;;;;;;23.90;nan;95419.19;4957522;28;21028;-63
2022/06/15 01:49:28;;;;;;;0.10;0.10;;;;;;;24.45;nan;95422.34;4964807;28;20448;-62
2022/06/15 01:51:59;;;;;;;0.10;0.10;;;;;;;24.27;nan;95420.94;4947286;28;20291;-62
2022/06/15 01:54:40;;;;;;;0.20;0.20;;;;;;;23.93;nan;95426.56;4941433;29;20443;-63
2022/06/15 01:57:09;;;;;;;0.20;0.20;;;;;;;24.48;nan;95421.72;4953537;28;20542;-64
2022/06/15 01:59:50;;;;;;;0.23;0.23;;;;;;;24.30;nan;95425.66;4950672;28;20475;-63
2022/06/15 02:02:32;;;;;;;0.20;0.20;;;;;;;24.16;nan;95427.06;4966850;28;20924;-63
2022/06/15 02:05:12;;;;;;;0.23;0.20;;;;;;;24.10;nan;95427.22;4956697;28;20592;-62
2022/06/15 02:08:11;;;;;;;0.23;0.13;;;;;;;24.18;nan;95432.88;4932695;29;20453;-62
2022/06/15 02:10:56;;;;;;;0.73;0.43;;;;;;;23.76;nan;95437.38;4961891;28;21029;-63
2022/06/15 02:13:46;;;;;;;0.10;0.10;;;;;;;24.30;nan;95428.34;4951691;29;20470;-61
2022/06/15 02:16:26;;;;;;;0.10;0.10;;;;;;;24.56;nan;95431.56;4962309;28;20484;-63
2022/06/15 02:18:57;;;;;;;0.83;0.83;;;;;;;24.42;nan;95433.75;4945867;28;20432;-62
2022/06/15 02:21:25;;;;;;;0.20;0.20;;;;;;;24.17;nan;95429.41;4951126;28;20452;-61
2022/06/15 02:23:56;;;;;;;0.37;0.37;;;;;;;24.35;nan;95432.72;4944417;29;20447;-62
2022/06/15 02:26:33;;;;;;;0.20;0.20;;;;;;;24.34;nan;95431.16;4951240;28;20543;-62
2022/06/15 02:29:14;;;;;;;0.30;0.30;;;;;;;23.72;nan;95439.16;4951367;29;20889;-62
2022/06/15 02:31:45;;;;;;;0.10;0.10;;;;;;;24.22;nan;95429.19;4948045;28;20454;-63
2022/06/15 02:34:14;;;;;;;0.30;0.30;;;;;;;24.56;nan;95434.22;4932072;28;20460;-62
2022/06/15 02:36:43;;;;;;;0.43;0.40;;;;;;;23.80;nan;95431.06;4950848;28;20488;-62
2022/06/15 02:39:12;;;;;;;0.10;0.10;;;;;;;24.45;nan;95432.31;4932140;29;20986;-62
2022/06/15 02:41:39;;;;;;;0.40;0.30;;;;;;;23.96;nan;95425.91;4950142;29;20445;-64
2022/06/15 02:44:16;;;;;;;0.23;0.23;;;;;;;24.34;nan;95426.59;4952525;28;20443;-62
2022/06/15 02:46:47;;;;;;;0.20;0.20;;;;;;;24.17;nan;95431.28;4953495;28;20460;-62
2022/06/15 02:49:16;;;;;;;0.23;0.23;;;;;;;23.72;nan;95425.78;4954851;28;20436;-61
2022/06/15 02:51:50;;;;;;;0.50;0.50;;;;;;;22.55;nan;95441.66;4954008;28;20452;-62
2022/06/15 02:54:39;;;;;;;0.13;0.13;;;;;;;22.39;nan;95437.09;4950939;28;20501;-64
2022/06/15 02:57:15;;;;;;;0.40;0.40;;;;;;;22.48;nan;95446.63;4965618;28;20546;-62
2022/06/15 02:59:45;;;;;;;0.17;0.17;;;;;;;22.49;nan;95440.22;4967112;28;20443;-62
2022/06/15 03:02:14;;;;;;;0.20;0.20;;;;;;;22.64;nan;95439.75;4962541;28;20525;-62
2022/06/15 03:04:45;;;;;;;0.90;0.70;;;;;;;22.70;nan;95443.78;4931422;29;21309;-61
2022/06/15 03:07:15;;;;;;;0.20;0.20;;;;;;;23.71;nan;95434.91;4944102;28;21027;-63
2022/06/15 03:09:43;;;;;;;0.33;0.30;;;;;;;24.07;nan;95438.59;4966563;28;20449;-62
2022/06/15 03:12:10;;;;;;;0.40;0.40;;;;;;;23.89;nan;95433.66;4966898;28;20482;-62
2022/06/15 03:14:38;;;;;;;0.43;0.43;;;;;;;24.00;nan;95441.03;4950696;28;20506;-62
2022/06/15 03:17:11;;;;;;;0.20;0.20;;;;;;;23.90;nan;95432.59;4937481;29;21031;-62
2022/06/15 03:19:53;;;;;;;0.43;0.43;;;;;;;24.03;nan;95436.94;4957924;28;20439;-62
2022/06/15 03:22:20;;;;;;;1.43;1.07;;;;;;;23.98;nan;95434.38;4956140;28;20541;-62
2022/06/15 03:24:51;;;;;;;0.37;0.37;;;;;;;24.25;nan;95433.88;4953548;28;20498;-64
2022/06/15 03:27:18;;;;;;;0.23;0.23;;;;;;;23.84;nan;95425.84;4939842;28;20444;-63
2022/06/15 03:29:50;;;;;;;0.20;0.20;;;;;;;23.83;nan;95440.34;4963385;28;20436;-62
2022/06/15 03:32:21;;;;;;;0.20;0.20;;;;;;;23.34;nan;95443.78;4944503;28;20199;-64
2022/06/15 03:34:57;;;;;;;0.17;0.17;;;;;;;22.92;nan;95451.59;4951617;28;20447;-63
2022/06/15 03:37:26;;;;;;;0.40;0.40;;;;;;;23.29;nan;95450.09;4979819;28;20529;-61
2022/06/15 03:40:10;;;;;;;0.37;0.37;;;;;;;23.48;nan;95452.34;4938176;29;20880;-64
2022/06/15 03:42:41;;;;;;;2.43;1.40;;;;;;;23.63;nan;95449.13;4967292;28;20239;-63
2022/06/15 03:45:12;;;;;;;0.43;0.40;;;;;;;23.66;nan;95461.84;4967762;28;20335;-63
2022/06/15 03:47:40;;;;;;;0.50;0.50;;;;;;;23.62;nan;95458.25;4961988;28;20445;-63
2022/06/15 03:50:10;;;;;;;0.87;0.50;;;;;;;23.77;nan;95463.03;4962981;28;20196;-61
2022/06/15 03:52:38;;;;;;;0.30;0.30;;;;;;;23.72;nan;95457.88;4963138;28;20456;-62
2022/06/15 03:55:05;;;;;;;0.40;0.40;;;;;;;23.73;nan;95467.47;4943617;28;20458;-61
2022/06/15 03:57:33;;;;;;;0.30;0.30;;;;;;;23.91;nan;95460.91;4965716;28;20487;-62
2022/06/15 04:00:05;;;;;;;0.97;0.60;;;;;;;24.25;nan;95458.00;4957840;28;20996;-65
2022/06/15 04:02:51;;;;;;;0.43;0.43;;;;;;;23.79;nan;95463.50;4939258;28;20510;-61
2022/06/15 04:05:53;;;;;;;0.93;0.57;;;;;;;24.12;nan;95466.31;4941938;28;21019;-64
2022/06/15 04:08:34;;;;;;;0.20;0.20;;;;;;;24.04;nan;95459.91;4962276;28;20963;-63
2022/06/15 04:11:58;;;;;;;0.53;0.40;;;;;;;24.82;nan;95468.84;4936057;29;20435;-64
2022/06/15 04:14:01;;;;;;;0.30;0.30;;;;;;;24.87;nan;95456.00;4965904;28;20448;-62
2022/06/15 04:16:28;;;;;;;0.60;0.60;;;;;;;24.94;nan;95461.63;4953986;28;21075;-61
2022/06/15 04:18:55;;;;;;;0.50;0.47;;;;;;;24.89;nan;95453.78;4952741;28;20204;-63
2022/06/15 04:21:23;;;;;;;0.40;0.40;;;;;;;25.01;nan;95461.09;4965867;28;20447;-63
2022/06/15 04:23:52;;;;;;;0.50;0.40;;;;;;;24.90;nan;95470.66;4945506;29;20490;-63
2022/06/15 04:26:19;;;;;;;0.43;0.20;;;;;;;24.84;nan;95467.41;4953512;28;20593;-62
2022/06/15 04:28:48;;;;;;;0.43;0.37;;;;;;;24.64;nan;95462.84;4953859;28;20435;-62
2022/06/15 04:31:23;;;;;;;0.27;0.27;;;;;;;23.94;nan;95468.31;4956486;28;20833;-64
2022/06/15 04:33:52;;;;;;;0.40;0.40;;;;;;;24.23;nan;95467.47;4965125;28;20618;-64
2022/06/15 04:36:28;;;;;;;0.70;0.70;;;;;;;24.95;nan;95471.25;4965028;28;20251;-63
2022/06/15 04:38:59;;;;;;;0.60;0.57;;;;;;;25.06;nan;95471.59;4945911;28;20439;-63
2022/06/15 04:41:33;;;;;;;0.27;0.27;;;;;;;25.26;nan;95475.31;4965235;28;20197;-62
2022/06/15 04:44:00;;;;;;;0.63;0.37;;;;;;;25.39;nan;95471.56;4958550;28;20448;-61
2022/06/15 04:46:27;;;;;;;3.60;1.80;;;;;;;25.49;nan;95473.81;4965228;28;20528;-66
2022/06/15 04:48:57;;;;;;;9.77;4.70;;;;;;;25.23;nan;95471.41;4953512;28;20884;-64
2022/06/15 04:51:30;;;;;;;1.17;1.10;;;;;;;25.46;nan;95469.88;4968091;28;20494;-69
2022/06/15 04:53:59;;;;;;;0.40;0.40;;;;;;;24.99;nan;95468.69;4938072;28;20451;-67
2022/06/15 04:56:26;;;;;;;0.40;0.40;;;;;;;25.51;nan;95472.34;4965103;28;20204;-69
2022/06/15 04:58:53;;;;;;;0.80;0.77;;;;;;;24.65;nan;95480.50;4949699;28;20538;-66
2022/06/15 05:01:20;;;;;;;0.40;0.33;;;;;;;21.98;nan;95496.28;4953574;28;20290;-66
2022/06/15 05:03:47;;;;;;;2.70;2.50;;;;;;;22.76;nan;95487.97;4954128;28;20533;-68
2022/06/15 05:06:17;;;;;;;4.30;2.67;;;;;;;22.91;nan;95490.13;4958983;28;20531;-67
2022/06/15 05:08:44;;;;;;;0.60;0.60;;;;;;;22.70;nan;95488.44;4948763;28;20296;-65
2022/06/15 05:11:11;;;;;;;1.20;0.90;;;;;;;22.90;nan;95487.78;4951754;28;20455;-66
2022/06/15 05:13:38;;;;;;;0.80;0.60;;;;;;;24.04;nan;95486.66;4967808;28;20456;-66
2022/06/15 05:16:06;;;;;;;0.60;0.60;;;;;;;23.95;nan;95489.38;4967530;28;20459;-66
2022/06/15 05:18:34;;;;;;;0.40;0.40;;;;;;;23.56;nan;95494.31;4957235;28;20972;-66
2022/06/15 05:21:06;;;;;;;0.87;0.53;;;;;;;23.73;nan;95494.22;4949287;29;20355;-65
2022/06/15 05:23:33;;;;;;;0.43;0.33;;;;;;;23.84;nan;95495.44;4952520;28;20588;-65
2022/06/15 05:26:02;;;;;;;0.67;0.20;;;;;;;24.44;nan;95490.47;4944724;28;20628;-66
2022/06/15 05:28:31;;;;;;;0.27;0.27;;;;;;;24.95;nan;95486.53;4942646;28;20211;-65
2022/06/15 05:31:14;;;;;;;0.50;0.50;;;;;;;25.47;nan;95492.94;4950883;28;20706;-65
2022/06/15 05:33:43;;;;;;;0.30;0.30;;;;;;;25.44;nan;95495.47;4942596;29;20822;-65
2022/06/15 05:36:17;;;;;;;0.37;0.37;;;;;;;24.19;nan;95499.50;4965374;28;20199;-64
2022/06/15 05:38:44;;;;;;;2.03;1.13;;;;;;;25.21;nan;95497.78;4950660;28;21059;-69
2022/06/15 05:41:12;;;;;;;0.23;0.23;;;;;;;24.74;nan;95499.97;4962547;28;20201;-69
2022/06/15 05:44:23;;;;;;;1.97;0.70;;;;;;;24.68;nan;95489.78;4940780;29;20290;-66
2022/06/15 05:46:35;;;;;;;0.27;0.27;;;;;;;25.60;nan;95489.09;4945489;29;20203;-70
2022/06/15 05:49:27;;;;;;;0.93;0.30;;;;;;;24.15;nan;95482.50;4935880;28;20266;-70
2022/06/15 05:51:54;;;;;;;0.20;0.20;;;;;;;24.01;nan;95492.69;4937692;29;20209;-66
2022/06/15 05:54:23;;;;;;;0.40;0.40;;;;;;;24.57;nan;95473.31;4966938;28;20200;-70
2022/06/15 05:56:50;;;;;;;0.20;0.20;;;;;;;24.71;nan;95500.66;4952230;29;20200;-68
2022/06/15 05:59:17;;;;;;;0.23;0.23;;;;;;;24.58;nan;95501.69;4952587;28;20200;-72
2022/06/15 06:01:44;;;;;;;0.30;0.30;;;;;;;24.91;nan;95507.06;4946516;28;20206;-70
2022/06/15 06:04:14;;;;;;;0.50;0.50;;;;;;;24.47;nan;95503.19;4951830;28;20231;-68
2022/06/15 06:06:41;;;;;;;0.30;0.30;;;;;;;25.12;nan;95505.13;4952164;28;20340;-69
2022/06/15 06:09:10;;;;;;;2.70;1.23;;;;;;;25.17;nan;95496.06;4946671;28;20584;-69
2022/06/15 06:11:37;;;;;;;0.30;0.30;;;;;;;25.19;nan;95497.31;4940817;28;20232;-69
2022/06/15 06:14:04;;;;;;;0.30;0.30;;;;;;;25.13;nan;95505.94;4951811;28;20254;-68
2022/06/15 06:16:31;;;;;;;4.13;1.33;;;;;;;25.12;nan;95504.34;4952005;28;20283;-70
2022/06/15 06:18:58;;;;;;;0.40;0.40;;;;;;;25.04;nan;95506.78;4951907;28;20227;-65
2022/06/15 06:21:25;;;;;;;0.57;0.40;;;;;;;24.57;nan;95513.53;4945133;28;20544;-64
2022/06/15 06:23:52;;;;;;;0.20;0.20;;;;;;;24.42;nan;95492.69;4942029;28;20294;-67
2022/06/15 06:26:31;;;;;;;1.23;0.50;;;;;;;25.42;nan;95508.47;4935973;28;20192;-70
2022/06/15 06:28:59;;;;;;;0.40;0.37;;;;;;;24.80;nan;95519.31;4954315;28;20203;-67
2022/06/15 06:31:27;;;;;;;0.50;0.50;;;;;;;25.46;nan;95509.34;4951754;28;20195;-70
2022/06/15 06:33:55;;;;;;;2.30;1.13;;;;;;;25.23;nan;95502.81;4951141;28;20289;-71
2022/06/15 06:36:36;;;;;;;0.50;0.50;;;;;;;25.45;nan;95507.78;4951588;28;20192;-68
2022/06/15 06:39:09;;;;;;;0.33;0.33;;;;;;;25.40;nan;95510.69;4949281;28;20681;-69
2022/06/15 06:41:36;;;;;;;1.63;1.20;;;;;;;25.33;nan;95488.97;4940857;28;20677;-68
2022/06/15 06:44:04;;;;;;;1.30;0.80;;;;;;;23.14;nan;95510.19;4938504;28;20218;-65
2022/06/15 06:46:37;;;;;;;0.23;0.23;;;;;;;23.39;nan;95499.75;4948942;28;20629;-70
2022/06/15 06:49:07;;;;;;;0.27;0.27;;;;;;;22.28;nan;95522.03;4949854;28;20223;-67
2022/06/15 06:51:36;;;;;;;0.60;0.60;;;;;;;22.07;nan;95505.06;4951194;28;20203;-68
2022/06/15 06:54:04;;;;;;;1.57;0.93;;;;;;;22.83;nan;95516.84;4950375;28;20200;-66
2022/06/15 06:56:34;;;;;;;0.13;0.13;;;;;;;22.00;nan;95520.78;4964074;28;20204;-66
2022/06/15 06:59:02;;;;;;;0.50;0.30;;;;;;;22.20;nan;95520.16;4938803;28;20719;-67
2022/06/15 07:01:30;;;;;;;0.67;0.30;;;;;;;23.15;nan;95516.31;4948257;28;20203;-68
2022/06/15 07:03:57;;;;;;;0.13;0.13;;;;;;;22.44;nan;95520.50;4949658;28;20236;-68
2022/06/15 07:06:24;;;;;;;0.37;0.37;;;;;;;23.38;nan;95507.00;4949777;28;20655;-69
2022/06/15 07:08:51;;;;;;;0.30;0.30;;;;;;;22.76;nan;95520.03;4950522;28;20294;-69
2022/06/15 07:11:20;;;;;;;0.23;0.23;;;;;;;22.59;nan;95516.59;4950224;28;20589;-69
2022/06/15 07:13:47;;;;;;;0.20;0.20;;;;;;;22.54;nan;95514.03;4950325;28;20658;-69
2022/06/15 07:16:17;;;;;;;0.73;0.73;;;;;;;24.75;nan;95498.88;4944793;28;20188;-70
2022/06/15 07:18:45;;;;;;;0.33;0.33;;;;;;;24.07;nan;95510.09;4943869;28;20733;-70
2022/06/15 07:21:15;;;;;;;0.70;0.40;;;;;;;25.20;nan;95490.06;4950557;28;20200;-70
2022/06/15 07:23:45;;;;;;;0.43;0.43;;;;;;;24.03;nan;95509.22;4949523;28;20218;-70
2022/06/15 07:26:16;;;;;;;0.30;0.30;;;;;;;23.33;nan;95514.41;4949767;28;20203;-69
2022/06/15 07:28:43;;;;;;;0.33;0.33;;;;;;;24.28;nan;95513.59;4939868;28;20196;-65
2022/06/15 07:31:29;;;;;;;0.33;0.33;;;;;;;23.42;nan;95517.81;4939297;28;20231;-67
2022/06/15 07:33:57;;;;;;;0.10;0.10;;;;;;;23.36;nan;95514.53;4935012;28;20687;-68
2022/06/15 07:36:28;;;;;;;0.33;0.33;;;;;;;22.65;nan;95524.13;4938506;28;20203;-64
2022/06/15 07:38:57;;;;;;;0.73;0.30;;;;;;;23.51;nan;95516.69;4940012;28;20311;-62
2022/06/15 07:41:25;;;;;;;0.30;0.30;;;;;;;24.36;nan;95510.06;4939804;28;20243;-63
2022/06/15 07:43:53;;;;;;;0.40;0.40;;;;;;;25.16;nan;95505.25;4955928;28;20740;-68
2022/06/15 07:46:21;;;;;;;0.20;0.20;;;;;;;25.00;nan;95513.94;4940435;28;20228;-69
2022/06/15 07:51:58;;;;;;;0.40;0.40;;;;;;;23.98;nan;95515.50;4964493;28;20210;-67
2022/06/15 07:54:26;;;;;;;1.50;0.97;;;;;;;23.20;nan;95516.16;4942623;28;20187;-68
2022/06/15 07:56:54;;;;;;;0.10;0.10;;;;;;;23.08;nan;95524.81;4955292;28;20202;-65
2022/06/15 07:59:22;;;;;;;0.30;0.30;;;;;;;23.08;nan;95524.81;4969810;28;20301;-63
2022/06/15 08:01:50;;;;;;;0.30;0.30;;;;;;;24.05;nan;95510.44;4956577;28;20595;-67
2022/06/15 08:04:17;;;;;;;0.30;0.30;;;;;;;24.51;nan;95511.34;4955397;28;20322;-69
2022/06/15 08:06:46;;;;;;;0.20;0.20;;;;;;;24.49;nan;95509.00;4954688;28;20199;-69
2022/06/15 08:09:13;;;;;;;0.40;0.40;;;;;;;24.09;nan;95516.72;4955881;28;20203;-65
2022/06/15 08:14:30;;;;;;;0.63;0.40;;;;;;;24.45;nan;95518.81;4943142;28;20204;-66
2022/06/15 08:16:57;;;;;;;0.17;0.17;;;;;;;24.28;nan;95513.59;4938948;28;20259;-68
2022/06/15 08:19:25;;;;;;;0.20;0.20;;;;;;;24.75;nan;95520.31;4957082;28;20234;-67
2022/06/15 08:21:52;;;;;;;0.33;0.33;;;;;;;24.01;nan;95514.88;4956420;28;20203;-66
2022/06/15 08:24:21;;;;;;;0.47;0.37;;;;;;;24.43;nan;95521.06;4955602;28;20208;-65
2022/06/15 08:26:48;;;;;;;0.63;0.43;;;;;;;24.53;nan;95517.97;4955260;28;20768;-67
2022/06/15 08:29:16;;;;;;;0.43;0.20;;;;;;;24.05;nan;95520.34;4941705;28;20196;-65
2022/06/15 08:31:43;;;;;;;0.73;0.53;;;;;;;24.26;nan;95521.19;4956007;28;20253;-66
2022/06/15 08:34:10;;;;;;;0.20;0.20;;;;;;;24.05;nan;95517.69;4955849;28;20188;-64
2022/06/15 08:36:38;;;;;;;1.00;0.90;;;;;;;25.07;nan;95519.53;4955825;28;20208;-66
2022/06/15 08:39:06;;;;;;;0.20;0.20;;;;;;;23.78;nan;95510.09;4956178;28;20231;-66
2022/06/15 08:41:35;;;;;;;9.73;1.90;;;;;;;25.42;nan;95513.84;4956381;28;20683;-67
2022/06/15 08:44:35;;;;;;;0.33;0.33;;;;;;;24.74;nan;95521.44;4956190;28;20191;-65
2022/06/15 08:47:18;;;;;;;0.20;0.20;;;;;;;25.30;nan;95519.13;4967904;28;20295;-66
2022/06/15 08:49:55;;;;;;;0.50;0.50;;;;;;;25.43;nan;95513.50;4948304;28;20211;-66
2022/06/15 08:52:39;;;;;;;0.50;0.50;;;;;;;25.88;nan;95513.38;4961234;28;20249;-66
2022/06/15 08:55:26;;;;;;;0.40;0.40;;;;;;;25.48;nan;95507.09;4962856;28;20195;-65
2022/06/15 08:58:02;;;;;;;0.40;0.40;;;;;;;26.52;nan;95514.19;4943508;28;20223;-68
2022/06/15 09:00:33;;;;;;;0.33;0.30;;;;;;;26.46;nan;95510.16;4952924;28;20226;-65
2022/06/15 09:03:13;;;;;;;0.50;0.50;;;;;;;26.41;nan;95518.47;4952424;28;20243;-66
2022/06/15 09:05:58;;;;;;;0.30;0.30;;;;;;;26.56;nan;95509.69;4950951;28;20183;-67
2022/06/15 09:08:51;;;;;;;0.70;0.40;;;;;;;26.56;nan;95514.28;4945374;28;20302;-69
2022/06/15 09:11:52;;;;;;;0.30;0.30;;;;;;;25.06;nan;95512.63;4940860;28;20258;-66
2022/06/15 09:14:37;;;;;;;0.60;0.43;;;;;;;25.89;nan;95515.72;4953104;28;20234;-67
2022/06/15 09:17:22;;;;;;;0.23;0.23;;;;;;;26.29;nan;95510.44;4953197;28;20200;-69
2022/06/15 09:20:20;;;;;;;0.37;0.37;;;;;;;26.72;nan;95507.09;4940823;29;20299;-66
2022/06/15 09:22:55;;;;;;;0.23;0.23;;;;;;;26.75;nan;95507.19;4951831;28;20987;-68
2022/06/15 09:25:35;;;;;;;0.70;0.70;;;;;;;26.80;nan;95506.94;4961611;28;20202;-69
2022/06/15 09:28:14;;;;;;;0.70;0.40;;;;;;;26.54;nan;95495.81;4952743;28;20203;-68
2022/06/15 09:30:42;;;;;;;0.57;0.57;;;;;;;26.70;nan;95510.13;4952742;28;20207;-68
2022/06/15 09:33:28;;;;;;;0.33;0.33;;;;;;;27.03;nan;95509.84;4952776;28;20203;-69
2022/06/15 09:36:02;;;;;;;0.50;0.50;;;;;;;27.37;nan;95495.00;4952618;28;20678;-67
2022/06/15 09:38:31;;;;;;;0.30;0.30;;;;;;;27.44;nan;95501.34;4959408;28;20280;-69
2022/06/15 09:41:20;;;;;;;0.60;0.50;;;;;;;28.11;nan;95497.56;4959144;28;20266;-69
2022/06/15 09:43:58;;;;;;;0.40;0.40;;;;;;;27.47;nan;95491.78;4941646;28;20227;-67
2022/06/15 09:46:32;;;;;;;0.57;0.57;;;;;;;28.43;nan;95493.59;4963867;28;20698;-68
2022/06/15 09:49:14;;;;;;;2.57;0.80;;;;;;;28.36;nan;95498.06;4953991;28;20203;-68
2022/06/15 09:51:58;;;;;;;0.57;0.57;;;;;;;25.05;nan;95505.66;4952178;29;20278;-70
2022/06/15 09:54:25;;;;;;;0.50;0.40;;;;;;;27.11;nan;95502.75;4940636;29;20226;-67
2022/06/15 09:56:52;;;;;;;0.27;0.27;;;;;;;26.87;nan;95498.28;4952155;28;20335;-68
2022/06/15 09:59:21;;;;;;;0.83;0.80;;;;;;;27.30;nan;95494.81;4938749;28;20220;-69
2022/06/15 10:01:48;;;;;;;0.40;0.40;;;;;;;26.81;nan;95492.38;4949998;28;20208;-66
2022/06/15 10:04:35;;;;;;;0.30;0.30;;;;;;;27.10;nan;95490.44;4952227;29;20286;-68
2022/06/15 10:07:16;;;;;;;0.30;0.30;;;;;;;27.70;nan;95487.34;4940405;28;20191;-71
2022/06/15 10:09:57;;;;;;;0.50;0.50;;;;;;;27.51;nan;95488.06;4936449;28;20223;-65
2022/06/15 10:15:19;;;;;;;0.93;0.83;;;;;;;28.47;nan;95478.28;4938343;28;20192;-65
2022/06/15 10:17:51;;;;;;;0.43;0.40;;;;;;;28.73;nan;95481.16;4951825;28;20200;-68
2022/06/15 10:20:30;;;;;;;1.33;0.90;;;;;;;28.44;nan;95479.00;4952152;28;20346;-68
2022/06/15 10:23:05;;;;;;;0.30;0.30;;;;;;;28.30;nan;95483.34;4951755;28;20283;-67
2022/06/15 10:25:37;;;;;;;0.60;0.60;;;;;;;29.38;nan;95476.56;4938389;29;20196;-70
2022/06/15 10:28:15;;;;;;;0.70;0.60;;;;;;;29.70;nan;95479.84;4951968;28;20208;-69
2022/06/15 10:30:58;;;;;;;0.30;0.30;;;;;;;29.26;nan;95470.59;4945748;28;20204;-67
2022/06/15 10:33:36;;;;;;;9.03;0.73;;;;;;;29.62;nan;95472.72;4947270;29;20204;-68
2022/06/15 10:36:21;;;;;;;0.20;0.20;;;;;;;29.46;nan;95472.06;4952121;28;20210;-68
2022/06/15 10:38:58;;;;;;;0.57;0.30;;;;;;;29.42;nan;95472.03;4963686;28;20611;-67
2022/06/15 10:41:46;;;;;;;0.50;0.50;;;;;;;29.59;nan;95470.75;4951012;28;20212;-69
2022/06/15 10:44:40;;;;;;;0.90;0.90;;;;;;;28.35;nan;95467.66;4945283;28;20204;-67
2022/06/15 10:47:19;;;;;;;0.40;0.40;;;;;;;28.79;nan;95479.75;4957786;28;20199;-68
2022/06/15 10:50:00;;;;;;;0.40;0.40;;;;;;;29.16;nan;95471.19;4951701;28;20202;-70
2022/06/15 10:52:37;;;;;;;0.60;0.60;;;;;;;29.44;nan;95460.84;4937271;28;20191;-66
2022/06/15 11:03:43;;;;;;;0.33;0.33;;;;;;;28.86;nan;95460.22;4950986;29;20231;-69
2022/06/15 11:06:10;;;;;;;0.57;0.57;;;;;;;28.35;nan;95434.53;4937760;28;20286;-66
2022/06/15 11:08:43;;;;;;;0.60;0.60;;;;;;;28.20;nan;95451.53;4950824;28;20214;-67
2022/06/15 11:11:21;;;;;;;0.40;0.40;;;;;;;28.55;nan;95453.06;4943342;28;20273;-70
2022/06/15 11:13:56;;;;;;;0.70;0.70;;;;;;;28.44;nan;95452.06;4957231;28;20204;-65
2022/06/15 11:19:26;;;;;;;0.63;0.63;;;;;;;28.14;nan;95451.03;4951026;28;20342;-67
2022/06/15 11:22:15;;;;;;;0.27;0.27;;;;;;;28.98;nan;95448.47;4950703;28;20274;-65
2022/06/15 11:24:52;;;;;;;0.67;0.67;;;;;;;28.46;nan;95446.31;4950416;28;20200;-66
2022/06/15 11:27:50;;;;;;;0.30;0.30;;;;;;;28.78;nan;95440.41;4950905;28;20203;-67
2022/06/15 11:30:40;;;;;;;0.30;0.30;;;;;;;28.20;nan;95419.19;4952742;28;20238;-68
2022/06/15 11:33:27;;;;;;;0.70;0.50;;;;;;;28.99;nan;95440.78;4958602;28;20207;-65
2022/06/15 11:36:34;;;;;;;0.60;0.60;;;;;;;29.09;nan;95441.34;4933479;28;20200;-72
2022/06/15 11:39:17;;;;;;;0.67;0.50;;;;;;;29.10;nan;95440.19;4947067;28;20753;-68
2022/06/15 11:41:56;;;;;;;0.30;0.30;;;;;;;29.30;nan;95428.22;4952138;28;20635;-69
2022/06/15 11:44:24;;;;;;;0.80;0.80;;;;;;;29.11;nan;95433.66;4950845;28;20215;-69
2022/06/15 11:47:02;;;;;;;0.50;0.50;;;;;;;29.70;nan;95433.91;4950881;28;20196;-68
2022/06/15 11:49:41;;;;;;;0.40;0.40;;;;;;;29.17;nan;95434.94;4942085;28;20195;-66
2022/06/15 11:52:39;;;;;;;0.40;0.40;;;;;;;29.65;nan;95428.78;4944929;28;20195;-67
2022/06/15 11:55:38;;;;;;;5.30;1.50;;;;;;;30.20;nan;95432.69;4944285;28;20207;-69
2022/06/15 11:58:13;;;;;;;0.40;0.40;;;;;;;29.37;nan;95433.75;4935981;28;20741;-67
2022/06/15 12:00:48;;;;;;;0.83;0.70;;;;;;;29.69;nan;95432.34;4962639;28;20714;-67
2022/06/15 12:03:52;;;;;;;0.33;0.33;;;;;;;29.42;nan;95428.03;4950334;28;20235;-67
2022/06/15 12:06:33;;;;;;;0.70;0.70;;;;;;;29.73;nan;95425.06;4951204;28;20230;-68
2022/06/15 12:09:14;;;;;;;0.50;0.50;;;;;;;29.52;nan;95419.34;4946636;28;20342;-65
2022/06/15 12:14:40;;;;;;;0.50;0.50;;;;;;;29.95;nan;95416.13;4943734;28;20199;-66
2022/06/15 12:17:20;;;;;;;0.40;0.40;;;;;;;30.03;nan;95412.38;4956566;28;20204;-69
2022/06/15 12:20:06;;;;;;;0.60;0.60;;;;;;;30.15;nan;95417.53;4938018;29;20300;-65
2022/06/15 12:22:41;;;;;;;0.60;0.60;;;;;;;30.55;nan;95417.69;4964062;28;20197;-68
2022/06/15 12:25:14;;;;;;;2.13;0.77;;;;;;;30.22;nan;95409.53;4950236;28;20578;-69
2022/06/15 12:27:57;;;;;;;0.30;0.30;;;;;;;30.73;nan;95412.44;4948262;28;20253;-71
2022/06/15 12:30:56;;;;;;;0.40;0.40;;;;;;;30.13;nan;95411.72;4941061;28;20597;-69
2022/06/15 12:33:35;;;;;;;0.70;0.70;;;;;;;30.32;nan;95419.72;4937874;28;20196;-67
2022/06/15 12:36:12;;;;;;;0.83;0.77;;;;;;;29.89;nan;95390.56;4954117;28;20750;-70
2022/06/15 12:39:19;;;;;;;0.40;0.40;;;;;;;30.46;nan;95417.19;4965026;28;20306;-65
2022/06/15 12:44:43;;;;;;;0.40;0.40;;;;;;;29.35;nan;95399.00;4948733;28;20192;-68
2022/06/15 12:47:13;;;;;;;0.47;0.47;;;;;;;29.54;nan;95395.44;4955989;28;20221;-68
2022/06/15 12:49:52;;;;;;;1.13;0.50;;;;;;;28.99;nan;95396.84;4953719;28;20592;-64
2022/06/15 12:52:22;;;;;;;0.40;0.40;;;;;;;29.48;nan;95396.88;4940003;28;20203;-68
2022/06/15 12:55:16;;;;;;;0.57;0.53;;;;;;;29.90;nan;95400.22;4954692;28;20639;-69